Terminal Aerodrome Forecast
Issued by NWS Spokane, WA

Home | Current Version | Previous Version | Text Only | Print | Product List | Glossary On
Versions: 1 2 3 4 5 6 7 8 9 10 11 12 13 14
000
FTUS46 KOTX 162148 AAA
TAFLWS
TAF AMD
KLWS 162148Z 1622/1718 30006KT P6SM VCSH BKN070 OVC100
     FM170200 13005KT P6SM SCT070 BKN100 OVC200
     FM171200 12007KT P6SM SCT050 OVC090=

USA.gov is the U.S. government's official web portal to all federal, state and local government web resources and services.